RYR297 GMMX-EPKK
Flight info
| Callsign | RYR297 |
|---|---|
| Flight time | N/A |
| Altitude | 34000 |
| Route | OBOGA DCT ABDOR UH400 AGOVA UM372 FES/N0446F360 UG850 BERUM DCT GONZA N860 BEGOX DCT LASPO DCT SOPET DCT DIKUT DCT TORDU DCT LOTOS DCT EBROX DCT PEXOT DCT RODRA DCT BCN DCT SALON DCT AGENA DCT BODEQ DCT LUMAS DCT UNANA DCT STP DCT RAPED DCT PIGOS DCT EKSID DCT NOSTA DCT EGHIN DCT MALUG/N0442F370 DCT GAMLI DCT STO DCT LEDVA DCT NETIR |
| Aircraft | B738/M-SDE2E3FGHIRWXY/LB1 |
Departure
| Time | 2026-05-07 16:33 |
|---|---|
| Airport | Marrakesh Menara Airport (GMMX) |
Arrival
| Time | N/A |
|---|---|
| Airport | Kraków John Paul II International Airport (EPKK) |
| Time | Latitude | Longitude | Altitude | Speed | Heading |
|---|---|---|---|---|---|
| 2026-05-07 16:13 | 31.60203 | -8.02299 | 1548 ft | 0 kts | 275° |
| 2026-05-07 16:24 | 31.60202 | -8.02285 | 1539 ft | 4 kts | 275° |
| 2026-05-07 16:24 | 31.60199 | -8.02254 | 1541 ft | 4 kts | 275° |
| 2026-05-07 16:25 | 31.60195 | -8.02227 | 1539 ft | 4 kts | 303° |
| 2026-05-07 16:25 | 31.60177 | -8.02213 | 1542 ft | 4 kts | 2° |
| 2026-05-07 16:25 | 31.60161 | -8.02215 | 1539 ft | 1 kts | 6° |
| 2026-05-07 16:25 | 31.60159 | -8.02215 | 1539 ft | 0 kts | 6° |
| 2026-05-07 16:27 | 31.60161 | -8.02215 | 1539 ft | 2 kts | 6° |
| 2026-05-07 16:28 | 31.60225 | -8.02209 | 1540 ft | 17 kts | 4° |
| 2026-05-07 16:28 | 31.60365 | -8.02199 | 1548 ft | 21 kts | 342° |
| 2026-05-07 16:28 | 31.60406 | -8.02365 | 1545 ft | 27 kts | 275° |
| 2026-05-07 16:28 | 31.60423 | -8.02578 | 1545 ft | 25 kts | 276° |
| 2026-05-07 16:29 | 31.60441 | -8.02779 | 1539 ft | 24 kts | 276° |
| 2026-05-07 16:29 | 31.60458 | -8.02967 | 1545 ft | 23 kts | 276° |
| 2026-05-07 16:29 | 31.60478 | -8.03199 | 1545 ft | 32 kts | 276° |
| 2026-05-07 16:29 | 31.60499 | -8.03453 | 1538 ft | 30 kts | 275° |
| 2026-05-07 16:30 | 31.60518 | -8.03691 | 1540 ft | 28 kts | 275° |
| 2026-05-07 16:30 | 31.60537 | -8.03916 | 1547 ft | 27 kts | 278° |
| 2026-05-07 16:30 | 31.60559 | -8.04126 | 1539 ft | 25 kts | 276° |
| 2026-05-07 16:30 | 31.60577 | -8.04325 | 1547 ft | 24 kts | 276° |
| 2026-05-07 16:31 | 31.60593 | -8.04509 | 1541 ft | 23 kts | 276° |
| 2026-05-07 16:31 | 31.60610 | -8.04692 | 1547 ft | 24 kts | 276° |
| 2026-05-07 16:31 | 31.60627 | -8.04897 | 1538 ft | 25 kts | 275° |
| 2026-05-07 16:31 | 31.60643 | -8.05090 | 1542 ft | 23 kts | 276° |
| 2026-05-07 16:32 | 31.60695 | -8.05250 | 1544 ft | 22 kts | 342° |
| 2026-05-07 16:32 | 31.60824 | -8.05164 | 1529 ft | 25 kts | 84° |
| 2026-05-07 16:32 | 31.60824 | -8.05147 | 1531 ft | 0 kts | 96° |
| 2026-05-07 16:32 | 31.60823 | -8.05140 | 1531 ft | 11 kts | 96° |
| 2026-05-07 16:33 | 31.60804 | -8.04927 | 1531 ft | 66 kts | 96° |
| 2026-05-07 16:33 | 31.60731 | -8.04097 | 1531 ft | 137 kts | 96° |
| 2026-05-07 16:33 | 31.60609 | -8.02750 | 1644 ft | 188 kts | 97° |
| 2026-05-07 16:33 | 31.60462 | -8.01144 | 2303 ft | 207 kts | 99° |
| 2026-05-07 16:34 | 31.59982 | -7.99502 | 3049 ft | 217 kts | 117° |
| 2026-05-07 16:34 | 31.59252 | -7.97929 | 3669 ft | 229 kts | 118° |
| 2026-05-07 16:34 | 31.58495 | -7.96201 | 3893 ft | 247 kts | 116° |
| 2026-05-07 16:34 | 31.57747 | -7.94335 | 4279 ft | 256 kts | 114° |
| 2026-05-07 16:35 | 31.57013 | -7.92414 | 4905 ft | 260 kts | 113° |
| 2026-05-07 16:35 | 31.56355 | -7.90423 | 5571 ft | 262 kts | 100° |
| 2026-05-07 16:35 | 31.56469 | -7.88330 | 6368 ft | 258 kts | 68° |
| 2026-05-07 16:35 | 31.57379 | -7.86541 | 7077 ft | 258 kts | 46° |
| 2026-05-07 16:36 | 31.58832 | -7.85247 | 7561 ft | 269 kts | 25° |
| 2026-05-07 16:36 | 31.60625 | -7.84664 | 8258 ft | 268 kts | 2° |
| 2026-05-07 16:36 | 31.62509 | -7.84702 | 8897 ft | 274 kts | 356° |
| 2026-05-07 16:36 | 31.64438 | -7.84829 | 9492 ft | 281 kts | 355° |
| 2026-05-07 16:37 | 31.66403 | -7.84978 | 10103 ft | 286 kts | 354° |
| 2026-05-07 16:37 | 31.68375 | -7.85133 | 10723 ft | 289 kts | 354° |
| 2026-05-07 16:37 | 31.70385 | -7.85290 | 11375 ft | 291 kts | 354° |
| 2026-05-07 16:37 | 31.72416 | -7.85449 | 11990 ft | 294 kts | 354° |
| 2026-05-07 16:38 | 31.74469 | -7.85607 | 12616 ft | 297 kts | 353° |
| 2026-05-07 16:38 | 31.76543 | -7.85768 | 13257 ft | 300 kts | 353° |
| 2026-05-07 16:38 | 31.78637 | -7.85889 | 13854 ft | 306 kts | 0° |
| 2026-05-07 16:38 | 31.80705 | -7.85215 | 14340 ft | 317 kts | 28° |
| 2026-05-07 16:39 | 31.82440 | -7.83512 | 14525 ft | 337 kts | 49° |
| 2026-05-07 16:39 | 31.83733 | -7.81137 | 14661 ft | 355 kts | 70° |
| 2026-05-07 16:39 | 31.84419 | -7.78289 | 14822 ft | 371 kts | 81° |
| 2026-05-07 16:39 | 31.84892 | -7.75241 | 14958 ft | 388 kts | 83° |
| 2026-05-07 16:40 | 31.85339 | -7.72057 | 15281 ft | 399 kts | 83° |
| 2026-05-07 16:40 | 31.85801 | -7.68810 | 15763 ft | 405 kts | 83° |
| 2026-05-07 16:40 | 31.86286 | -7.65531 | 16298 ft | 409 kts | 82° |
| 2026-05-07 16:40 | 31.86790 | -7.62220 | 16812 ft | 414 kts | 82° |
| 2026-05-07 16:41 | 31.87310 | -7.58869 | 17273 ft | 420 kts | 81° |
| 2026-05-07 16:41 | 31.87838 | -7.55468 | 17684 ft | 426 kts | 81° |
| 2026-05-07 16:41 | 31.88385 | -7.52012 | 18161 ft | 432 kts | 79° |
| 2026-05-07 16:41 | 31.89243 | -7.48609 | 18595 ft | 436 kts | 68° |
| 2026-05-07 16:42 | 31.90565 | -7.45392 | 19100 ft | 437 kts | 61° |
| 2026-05-07 16:42 | 31.92004 | -7.42238 | 19599 ft | 439 kts | 61° |
| 2026-05-07 16:42 | 31.93463 | -7.39065 | 20069 ft | 442 kts | 61° |
| 2026-05-07 16:42 | 31.94914 | -7.35878 | 20561 ft | 445 kts | 61° |
| 2026-05-07 16:43 | 31.96363 | -7.32649 | 21038 ft | 447 kts | 62° |
| 2026-05-07 16:43 | 31.97808 | -7.29396 | 21487 ft | 450 kts | 62° |
| 2026-05-07 16:43 | 31.99259 | -7.26113 | 21927 ft | 453 kts | 62° |
| 2026-05-07 16:43 | 32.00715 | -7.22816 | 22389 ft | 455 kts | 62° |
| 2026-05-07 16:44 | 32.02180 | -7.19497 | 22873 ft | 456 kts | 62° |
| 2026-05-07 16:44 | 32.03651 | -7.16181 | 23388 ft | 458 kts | 61° |
| 2026-05-07 16:44 | 32.05134 | -7.12847 | 23742 ft | 461 kts | 61° |
| 2026-05-07 16:44 | 32.06628 | -7.09491 | 24082 ft | 464 kts | 61° |
| 2026-05-07 16:45 | 32.08129 | -7.06115 | 24453 ft | 466 kts | 61° |
| 2026-05-07 16:45 | 32.09634 | -7.02724 | 24829 ft | 468 kts | 61° |
| 2026-05-07 16:45 | 32.11144 | -6.99317 | 25192 ft | 470 kts | 61° |
| 2026-05-07 16:45 | 32.12660 | -6.95891 | 25532 ft | 472 kts | 61° |
| 2026-05-07 16:46 | 32.14184 | -6.92446 | 25874 ft | 475 kts | 61° |
| 2026-05-07 16:46 | 32.15712 | -6.88986 | 26247 ft | 476 kts | 61° |
| 2026-05-07 16:46 | 32.17245 | -6.85512 | 26603 ft | 479 kts | 61° |
| 2026-05-07 16:46 | 32.18785 | -6.82021 | 26903 ft | 482 kts | 61° |
| 2026-05-07 16:47 | 32.20336 | -6.78504 | 27222 ft | 484 kts | 61° |
| 2026-05-07 16:47 | 32.21894 | -6.74976 | 27549 ft | 486 kts | 61° |
| 2026-05-07 16:47 | 32.23461 | -6.71424 | 27744 ft | 491 kts | 61° |
| 2026-05-07 16:47 | 32.25051 | -6.67819 | 27808 ft | 499 kts | 61° |
| 2026-05-07 16:48 | 32.26663 | -6.64159 | 27871 ft | 506 kts | 61° |
| 2026-05-07 16:48 | 32.28295 | -6.60448 | 27928 ft | 512 kts | 61° |
| 2026-05-07 16:48 | 32.29946 | -6.56688 | 27987 ft | 518 kts | 61° |
| 2026-05-07 16:49 | 32.33277 | -6.49088 | 28152 ft | 529 kts | 61° |
| 2026-05-07 16:49 | 32.34970 | -6.45220 | 28358 ft | 529 kts | 61° |
| 2026-05-07 16:49 | 32.36676 | -6.41315 | 28805 ft | 525 kts | 61° |
| 2026-05-07 16:49 | 32.38345 | -6.37495 | 29239 ft | 522 kts | 60° |
| 2026-05-07 16:50 | 32.40086 | -6.33733 | 29575 ft | 520 kts | 55° |
| 2026-05-07 16:50 | 32.42232 | -6.30305 | 29841 ft | 517 kts | 46° |
| 2026-05-07 16:50 | 32.44731 | -6.27269 | 30121 ft | 513 kts | 38° |
| 2026-05-07 16:50 | 32.47532 | -6.24711 | 30441 ft | 506 kts | 30° |
| 2026-05-07 16:51 | 32.50435 | -6.22355 | 30739 ft | 505 kts | 30° |
| 2026-05-07 16:51 | 32.53337 | -6.20009 | 31002 ft | 505 kts | 30° |
| 2026-05-07 16:51 | 32.56226 | -6.17650 | 31282 ft | 504 kts | 30° |
| 2026-05-07 16:51 | 32.59101 | -6.15272 | 31552 ft | 503 kts | 30° |
| 2026-05-07 16:52 | 32.61924 | -6.12914 | 31826 ft | 503 kts | 31° |
| 2026-05-07 16:52 | 32.64778 | -6.10519 | 32093 ft | 502 kts | 31° |
| 2026-05-07 16:52 | 32.67627 | -6.08124 | 32370 ft | 501 kts | 30° |
| 2026-05-07 16:52 | 32.70503 | -6.05706 | 32689 ft | 499 kts | 30° |
| 2026-05-07 16:53 | 32.73288 | -6.03367 | 32983 ft | 497 kts | 30° |
| 2026-05-07 16:53 | 32.76113 | -6.00994 | 33242 ft | 497 kts | 30° |
| 2026-05-07 16:53 | 32.78941 | -5.98620 | 33448 ft | 498 kts | 30° |
| 2026-05-07 16:53 | 32.81766 | -5.96247 | 33700 ft | 497 kts | 30° |
| 2026-05-07 16:54 | 32.84586 | -5.93876 | 33904 ft | 497 kts | 30° |
| 2026-05-07 16:54 | 32.90249 | -5.89109 | 33897 ft | 498 kts | 30° |
| 2026-05-07 16:55 | 32.95887 | -5.84350 | 33897 ft | 496 kts | 30° |
| 2026-05-07 16:55 | 33.01498 | -5.79608 | 33891 ft | 494 kts | 30° |
| 2026-05-07 16:56 | 33.07102 | -5.74865 | 33907 ft | 494 kts | 30° |
| 2026-05-07 16:56 | 33.15492 | -5.67750 | 33914 ft | 493 kts | 30° |
| 2026-05-07 16:57 | 33.21072 | -5.63009 | 33919 ft | 492 kts | 30° |
| 2026-05-07 16:57 | 33.26642 | -5.58268 | 33921 ft | 492 kts | 30° |
| 2026-05-07 16:58 | 33.32208 | -5.53522 | 33931 ft | 491 kts | 30° |
| 2026-05-07 16:58 | 33.37776 | -5.48768 | 33943 ft | 492 kts | 30° |
| 2026-05-07 16:59 | 33.43352 | -5.43999 | 33946 ft | 493 kts | 30° |
| 2026-05-07 16:59 | 33.48931 | -5.39220 | 33951 ft | 494 kts | 30° |
| 2026-05-07 17:00 | 33.54522 | -5.34417 | 33956 ft | 495 kts | 30° |
| 2026-05-07 17:00 | 33.60125 | -5.29595 | 33959 ft | 496 kts | 30° |
| 2026-05-07 17:01 | 33.65736 | -5.24759 | 33967 ft | 497 kts | 30° |
| 2026-05-07 17:01 | 33.71344 | -5.19916 | 33950 ft | 497 kts | 30° |
| 2026-05-07 17:02 | 33.76954 | -5.15064 | 33955 ft | 497 kts | 30° |
| 2026-05-07 17:02 | 33.82558 | -5.10209 | 33946 ft | 496 kts | 30° |
| 2026-05-07 17:03 | 33.88151 | -5.05355 | 33953 ft | 496 kts | 30° |
| 2026-05-07 17:03 | 33.93744 | -5.00487 | 33940 ft | 496 kts | 31° |
| 2026-05-07 17:04 | 33.99229 | -4.95524 | 33944 ft | 497 kts | 32° |
| 2026-05-07 17:04 | 34.04752 | -4.90444 | 33950 ft | 502 kts | 32° |
| 2026-05-07 17:05 | 34.10319 | -4.85336 | 33954 ft | 504 kts | 32° |
| 2026-05-07 17:05 | 34.15910 | -4.80216 | 33953 ft | 505 kts | 32° |
| 2026-05-07 17:06 | 34.21505 | -4.75087 | 33944 ft | 506 kts | 32° |
| 2026-05-07 17:06 | 34.27105 | -4.69943 | 33943 ft | 505 kts | 32° |
| 2026-05-07 17:07 | 34.32700 | -4.64794 | 33934 ft | 505 kts | 32° |
| 2026-05-07 17:07 | 34.38281 | -4.59650 | 33939 ft | 504 kts | 32° |
| 2026-05-07 17:08 | 34.43845 | -4.54493 | 33939 ft | 504 kts | 32° |
| 2026-05-07 17:08 | 34.49396 | -4.49311 | 33939 ft | 504 kts | 32° |
| 2026-05-07 17:09 | 34.54941 | -4.44124 | 33941 ft | 503 kts | 32° |
| 2026-05-07 17:09 | 34.60488 | -4.38932 | 33927 ft | 503 kts | 32° |
| 2026-05-07 17:10 | 34.66028 | -4.33738 | 33954 ft | 503 kts | 32° |
| 2026-05-07 17:10 | 34.71552 | -4.28549 | 33937 ft | 502 kts | 32° |
| 2026-05-07 17:11 | 34.77082 | -4.23348 | 33932 ft | 502 kts | 32° |
| 2026-05-07 17:11 | 34.82606 | -4.18142 | 33939 ft | 502 kts | 32° |
| 2026-05-07 17:12 | 34.88122 | -4.12934 | 33933 ft | 502 kts | 32° |
| 2026-05-07 17:12 | 34.93643 | -4.07712 | 33962 ft | 502 kts | 31° |
| 2026-05-07 17:13 | 34.99150 | -4.02494 | 33949 ft | 500 kts | 31° |
| 2026-05-07 17:13 | 35.04649 | -3.97277 | 33929 ft | 501 kts | 31° |
| 2026-05-07 17:14 | 35.10138 | -3.92057 | 33934 ft | 500 kts | 31° |
| 2026-05-07 17:14 | 35.15628 | -3.86828 | 33936 ft | 500 kts | 31° |
| 2026-05-07 17:15 | 35.21123 | -3.81611 | 33964 ft | 500 kts | 31° |
| 2026-05-07 17:15 | 35.26665 | -3.76487 | 33949 ft | 499 kts | 30° |
| 2026-05-07 17:16 | 35.31273 | -3.72246 | 33926 ft | 499 kts | 30° |
| 2026-05-07 17:16 | 35.36811 | -3.67122 | 33942 ft | 499 kts | 30° |
| 2026-05-07 17:17 | 35.42341 | -3.61982 | 33935 ft | 499 kts | 30° |
| 2026-05-07 17:17 | 35.47869 | -3.56831 | 33938 ft | 500 kts | 30° |
| 2026-05-07 17:18 | 35.53407 | -3.51662 | 33927 ft | 501 kts | 30° |
| 2026-05-07 17:18 | 35.58947 | -3.46482 | 33929 ft | 500 kts | 31° |
| 2026-05-07 17:19 | 35.64485 | -3.41295 | 33927 ft | 500 kts | 30° |
| 2026-05-07 17:19 | 35.70014 | -3.36106 | 33924 ft | 500 kts | 30° |
| 2026-05-07 17:20 | 35.75541 | -3.30912 | 33929 ft | 500 kts | 30° |
| 2026-05-07 17:20 | 35.81068 | -3.25708 | 33920 ft | 500 kts | 30° |
| 2026-05-07 17:21 | 35.86547 | -3.20514 | 33920 ft | 500 kts | 31° |
| 2026-05-07 17:21 | 35.92067 | -3.15201 | 33911 ft | 500 kts | 31° |
| 2026-05-07 17:22 | 35.97550 | -3.09908 | 33919 ft | 500 kts | 31° |
| 2026-05-07 17:22 | 36.02998 | -3.04649 | 33918 ft | 500 kts | 31° |
| 2026-05-07 17:23 | 36.08476 | -2.99356 | 33915 ft | 500 kts | 31° |
| 2026-05-07 17:23 | 36.13948 | -2.94058 | 33912 ft | 499 kts | 31° |
| 2026-05-07 17:24 | 36.19415 | -2.88757 | 33915 ft | 499 kts | 31° |
| 2026-05-07 17:24 | 36.24895 | -2.83480 | 33917 ft | 499 kts | 30° |
| 2026-05-07 17:25 | 36.30394 | -2.78239 | 33922 ft | 499 kts | 30° |
| 2026-05-07 17:25 | 36.35897 | -2.72977 | 33917 ft | 500 kts | 30° |
| 2026-05-07 17:26 | 36.41396 | -2.67697 | 33915 ft | 500 kts | 30° |
| 2026-05-07 17:26 | 36.46892 | -2.62411 | 33920 ft | 500 kts | 30° |
| 2026-05-07 17:27 | 36.52345 | -2.57030 | 33921 ft | 501 kts | 31° |
| 2026-05-07 17:27 | 36.57770 | -2.51572 | 33914 ft | 502 kts | 31° |
| 2026-05-07 17:28 | 36.63199 | -2.46116 | 33917 ft | 501 kts | 31° |
| 2026-05-07 17:28 | 36.68632 | -2.40665 | 33913 ft | 501 kts | 31° |
| 2026-05-07 17:29 | 36.74060 | -2.35212 | 33937 ft | 502 kts | 31° |
| 2026-05-07 17:29 | 36.79501 | -2.29735 | 33920 ft | 502 kts | 31° |
| 2026-05-07 17:30 | 36.85054 | -2.24537 | 33908 ft | 491 kts | 21° |
| 2026-05-07 17:30 | 36.91056 | -2.20589 | 33910 ft | 486 kts | 18° |
| 2026-05-07 17:31 | 36.97081 | -2.16741 | 33918 ft | 487 kts | 18° |
| 2026-05-07 17:31 | 37.03086 | -2.12799 | 33933 ft | 488 kts | 19° |
| 2026-05-07 17:32 | 37.09077 | -2.08807 | 33936 ft | 488 kts | 19° |
| 2026-05-07 17:32 | 37.15026 | -2.04833 | 33915 ft | 488 kts | 19° |
| 2026-05-07 17:33 | 37.21017 | -2.00832 | 33915 ft | 488 kts | 19° |
| 2026-05-07 17:33 | 37.27015 | -1.96848 | 33933 ft | 487 kts | 18° |
| 2026-05-07 17:34 | 37.33036 | -1.93005 | 33936 ft | 485 kts | 17° |
| 2026-05-07 17:34 | 37.39070 | -1.89181 | 33936 ft | 486 kts | 17° |
| 2026-05-07 17:35 | 37.45093 | -1.85335 | 33933 ft | 485 kts | 17° |
| 2026-05-07 17:35 | 37.51111 | -1.81472 | 33931 ft | 486 kts | 17° |
| 2026-05-07 17:36 | 37.57126 | -1.77599 | 33930 ft | 485 kts | 17° |
| 2026-05-07 17:36 | 37.63117 | -1.73736 | 33931 ft | 484 kts | 17° |
| 2026-05-07 17:37 | 37.69102 | -1.69871 | 33948 ft | 483 kts | 17° |
| 2026-05-07 17:37 | 37.75086 | -1.66002 | 33951 ft | 484 kts | 17° |
| 2026-05-07 17:38 | 37.81072 | -1.62122 | 33942 ft | 483 kts | 17° |
| 2026-05-07 17:38 | 37.87040 | -1.58242 | 33902 ft | 482 kts | 17° |
| 2026-05-07 17:39 | 37.92979 | -1.54375 | 33968 ft | 480 kts | 17° |
| 2026-05-07 17:39 | 37.98879 | -1.50457 | 33955 ft | 483 kts | 17° |
| 2026-05-07 17:40 | 38.04812 | -1.46479 | 33945 ft | 482 kts | 17° |
| 2026-05-07 17:40 | 38.10770 | -1.42486 | 33959 ft | 481 kts | 17° |
| 2026-05-07 17:41 | 38.16647 | -1.38549 | 33943 ft | 480 kts | 17° |
| 2026-05-07 17:41 | 38.22557 | -1.34586 | 33953 ft | 480 kts | 18° |
| 2026-05-07 17:42 | 38.28452 | -1.30625 | 33966 ft | 479 kts | 17° |
| 2026-05-07 17:42 | 38.34345 | -1.26658 | 33957 ft | 479 kts | 18° |
| 2026-05-07 17:43 | 38.40231 | -1.22688 | 33954 ft | 479 kts | 18° |
| 2026-05-07 17:43 | 38.46112 | -1.18714 | 33962 ft | 478 kts | 18° |
| 2026-05-07 17:44 | 38.51982 | -1.14741 | 33963 ft | 478 kts | 18° |
| 2026-05-07 17:44 | 38.57853 | -1.10756 | 33955 ft | 478 kts | 18° |
| 2026-05-07 17:45 | 38.63566 | -1.06286 | 33949 ft | 493 kts | 30° |
| 2026-05-07 17:45 | 38.68356 | -0.99796 | 33966 ft | 511 kts | 46° |
| 2026-05-07 17:46 | 38.72589 | -0.92468 | 33954 ft | 513 kts | 46° |
| 2026-05-07 17:46 | 38.76816 | -0.85105 | 33947 ft | 513 kts | 46° |
| 2026-05-07 17:47 | 38.81068 | -0.77778 | 33940 ft | 513 kts | 46° |
| 2026-05-07 17:47 | 38.85346 | -0.70446 | 33916 ft | 514 kts | 46° |
| 2026-05-07 17:48 | 38.89634 | -0.63092 | 33941 ft | 515 kts | 47° |
| 2026-05-07 17:48 | 38.93893 | -0.55766 | 33916 ft | 515 kts | 47° |
| 2026-05-07 17:49 | 38.98174 | -0.48379 | 33902 ft | 515 kts | 48° |
| 2026-05-07 17:49 | 39.02445 | -0.40992 | 33914 ft | 514 kts | 48° |
| 2026-05-07 17:50 | 39.06703 | -0.33611 | 33926 ft | 514 kts | 48° |
| 2026-05-07 17:50 | 39.10961 | -0.26215 | 33936 ft | 514 kts | 48° |
| 2026-05-07 17:51 | 39.15209 | -0.18817 | 33952 ft | 513 kts | 49° |
| 2026-05-07 17:51 | 39.19447 | -0.11419 | 33950 ft | 513 kts | 49° |
| 2026-05-07 17:52 | 39.23671 | -0.04031 | 33948 ft | 512 kts | 49° |
| 2026-05-07 17:52 | 39.27889 | 0.03363 | 33953 ft | 511 kts | 50° |
| 2026-05-07 17:53 | 39.32092 | 0.10750 | 33947 ft | 510 kts | 50° |
| 2026-05-07 17:53 | 39.36285 | 0.18136 | 33976 ft | 509 kts | 50° |
| 2026-05-07 17:54 | 39.40471 | 0.25528 | 33954 ft | 509 kts | 50° |
| 2026-05-07 17:54 | 39.44650 | 0.32922 | 33954 ft | 509 kts | 50° |
| 2026-05-07 17:55 | 39.48822 | 0.40321 | 33940 ft | 508 kts | 51° |
| 2026-05-07 17:55 | 39.52976 | 0.47706 | 33949 ft | 507 kts | 51° |
| 2026-05-07 17:56 | 39.57126 | 0.55103 | 33952 ft | 507 kts | 51° |
| 2026-05-07 17:56 | 39.61265 | 0.62496 | 33951 ft | 506 kts | 52° |
| 2026-05-07 17:57 | 39.64691 | 0.68630 | 33947 ft | 505 kts | 52° |
| 2026-05-07 17:57 | 39.69498 | 0.77253 | 33935 ft | 504 kts | 53° |
| 2026-05-07 17:58 | 39.73595 | 0.84621 | 33943 ft | 503 kts | 54° |
| 2026-05-07 17:58 | 39.77683 | 0.91992 | 33943 ft | 502 kts | 54° |
| 2026-05-07 17:59 | 39.81757 | 0.99354 | 33961 ft | 502 kts | 55° |
| 2026-05-07 17:59 | 39.85830 | 1.06732 | 33950 ft | 502 kts | 55° |
| 2026-05-07 18:00 | 39.89892 | 1.14106 | 33941 ft | 501 kts | 55° |
| 2026-05-07 18:00 | 39.93929 | 1.21451 | 33944 ft | 502 kts | 57° |
| 2026-05-07 18:01 | 39.97994 | 1.28868 | 33952 ft | 503 kts | 57° |
| 2026-05-07 18:01 | 40.02065 | 1.36311 | 33947 ft | 504 kts | 57° |
| 2026-05-07 18:02 | 40.08177 | 1.47519 | 33949 ft | 506 kts | 57° |
| 2026-05-07 18:03 | 40.12258 | 1.55024 | 33931 ft | 507 kts | 58° |
| 2026-05-07 18:03 | 40.16339 | 1.62547 | 33947 ft | 507 kts | 58° |
| 2026-05-07 18:04 | 40.20416 | 1.70083 | 33950 ft | 508 kts | 58° |
| 2026-05-07 18:04 | 40.24492 | 1.77634 | 33966 ft | 508 kts | 58° |
| 2026-05-07 18:05 | 40.28575 | 1.85217 | 33952 ft | 510 kts | 58° |
| 2026-05-07 18:05 | 40.32662 | 1.92823 | 33926 ft | 511 kts | 58° |
| 2026-05-07 18:06 | 40.36060 | 1.99163 | 33947 ft | 512 kts | 58° |
| 2026-05-07 18:06 | 40.40151 | 2.06813 | 33952 ft | 513 kts | 58° |
| 2026-05-07 18:07 | 40.44266 | 2.14527 | 33951 ft | 513 kts | 58° |
| 2026-05-07 18:07 | 40.48360 | 2.22219 | 33958 ft | 514 kts | 58° |
| 2026-05-07 18:08 | 40.52422 | 2.29869 | 33926 ft | 514 kts | 58° |
| 2026-05-07 18:08 | 40.56510 | 2.37588 | 33952 ft | 514 kts | 58° |
| 2026-05-07 18:09 | 40.60596 | 2.45323 | 33957 ft | 515 kts | 58° |
| 2026-05-07 18:09 | 40.64680 | 2.53073 | 33952 ft | 515 kts | 58° |
| 2026-05-07 18:10 | 40.68756 | 2.60829 | 33956 ft | 515 kts | 58° |
| 2026-05-07 18:10 | 40.72830 | 2.68598 | 33938 ft | 515 kts | 58° |
| 2026-05-07 18:11 | 40.76893 | 2.76365 | 33953 ft | 515 kts | 58° |
| 2026-05-07 18:11 | 40.80953 | 2.84147 | 33953 ft | 515 kts | 58° |
| 2026-05-07 18:12 | 40.85008 | 2.91939 | 33950 ft | 514 kts | 59° |
| 2026-05-07 18:12 | 40.89051 | 2.99729 | 33965 ft | 515 kts | 59° |
| 2026-05-07 18:13 | 40.93100 | 3.07548 | 33942 ft | 516 kts | 58° |
| 2026-05-07 18:13 | 40.97155 | 3.15399 | 33962 ft | 517 kts | 58° |
| 2026-05-07 18:14 | 41.01212 | 3.23276 | 33964 ft | 519 kts | 58° |
| 2026-05-07 18:14 | 41.05275 | 3.31184 | 33959 ft | 520 kts | 58° |
| 2026-05-07 18:15 | 41.09341 | 3.39116 | 33976 ft | 521 kts | 59° |
| 2026-05-07 18:15 | 41.13406 | 3.47069 | 33972 ft | 522 kts | 59° |
| 2026-05-07 18:16 | 41.17480 | 3.55058 | 33967 ft | 523 kts | 59° |
| 2026-05-07 18:16 | 41.21555 | 3.63071 | 33963 ft | 523 kts | 59° |
| 2026-05-07 18:17 | 41.25621 | 3.71088 | 33965 ft | 523 kts | 59° |
| 2026-05-07 18:17 | 41.29686 | 3.79124 | 33967 ft | 524 kts | 59° |
| 2026-05-07 18:18 | 41.33746 | 3.87170 | 33965 ft | 523 kts | 59° |
| 2026-05-07 18:18 | 41.37796 | 3.95217 | 33965 ft | 523 kts | 59° |
| 2026-05-07 18:19 | 41.41832 | 4.03258 | 33967 ft | 522 kts | 59° |
| 2026-05-07 18:19 | 41.45865 | 4.11314 | 33967 ft | 522 kts | 59° |
| 2026-05-07 18:20 | 41.49890 | 4.19377 | 33972 ft | 522 kts | 58° |
| 2026-05-07 18:20 | 41.53907 | 4.27444 | 33962 ft | 521 kts | 59° |
| 2026-05-07 18:21 | 41.57914 | 4.35513 | 33968 ft | 521 kts | 59° |
| 2026-05-07 18:21 | 41.61915 | 4.43589 | 33966 ft | 521 kts | 59° |
| 2026-05-07 18:22 | 41.65903 | 4.51665 | 33965 ft | 521 kts | 59° |
| 2026-05-07 18:22 | 41.69893 | 4.59762 | 33952 ft | 521 kts | 59° |
| 2026-05-07 18:23 | 41.74008 | 4.67732 | 33956 ft | 523 kts | 51° |
| 2026-05-07 18:23 | 41.79137 | 4.74671 | 33973 ft | 525 kts | 45° |
| 2026-05-07 18:24 | 41.84414 | 4.81441 | 33963 ft | 525 kts | 45° |
| 2026-05-07 18:24 | 41.89658 | 4.88270 | 33971 ft | 525 kts | 45° |
| 2026-05-07 18:25 | 41.94858 | 4.95150 | 33972 ft | 525 kts | 46° |
| 2026-05-07 18:25 | 42.00020 | 5.02022 | 33974 ft | 526 kts | 46° |
| 2026-05-07 18:26 | 42.05227 | 5.08969 | 33973 ft | 528 kts | 46° |
| 2026-05-07 18:26 | 42.10436 | 5.15929 | 33989 ft | 528 kts | 46° |
| 2026-05-07 18:27 | 42.15200 | 5.22306 | 33985 ft | 529 kts | 46° |